createdAt,value
2023-03-11T00:56:58.925Z,91339.00
2023-03-11T00:57:59.782Z,91348.00
2023-03-11T00:58:59.035Z,91352.00
2023-03-11T00:59:59.077Z,91352.00
2023-03-11T01:00:59.194Z,91348.00
2023-03-11T01:01:59.162Z,91343.00
2023-03-11T01:02:59.218Z,91337.00
2023-03-11T01:03:59.326Z,91329.00
2023-03-11T01:04:59.381Z,91318.00
2023-03-11T01:06:00.284Z,91312.00
2023-03-11T01:06:59.460Z,91312.00
2023-03-11T01:07:59.496Z,91308.00
2023-03-11T01:09:59.599Z,91308.00
2023-03-11T01:10:59.636Z,91310.00
2023-03-11T01:11:59.697Z,91318.00
2023-03-11T01:12:59.726Z,91329.00
2023-03-11T01:13:59.767Z,91331.00
2023-03-11T01:14:59.856Z,91331.00
2023-03-11T01:15:59.956Z,91329.00
2023-03-11T01:16:59.922Z,91331.00
2023-03-11T01:17:59.965Z,91339.00
2023-03-11T01:19:00.003Z,91331.00
2023-03-11T01:21:00.098Z,91314.00
2023-03-11T01:22:00.153Z,91312.00
2023-03-11T01:23:00.209Z,91312.00
2023-03-11T01:24:00.247Z,91308.00
2023-03-11T01:25:00.306Z,91310.00
2023-03-11T01:26:00.340Z,91304.00
2023-03-11T04:08:08.923Z,91384.00
2023-03-11T04:09:08.992Z,91386.00
2023-03-11T04:10:09.052Z,91386.00
2023-03-11T04:11:09.095Z,91390.00
2023-03-11T04:12:09.143Z,91386.00
2023-03-11T04:13:09.203Z,91380.00
2023-03-11T04:14:09.252Z,91374.00
2023-03-11T04:15:09.303Z,91370.00
2023-03-11T04:16:09.349Z,91366.00
2023-03-11T04:17:09.448Z,91366.00
2023-03-11T04:18:09.490Z,91368.00
2023-03-11T04:19:09.842Z,91370.00
2023-03-11T04:20:09.847Z,91368.00
2023-03-11T04:21:09.615Z,91366.00
2023-03-11T04:22:09.748Z,91360.00
2023-03-11T04:23:09.784Z,91356.00
2023-03-11T04:24:09.775Z,91358.00
2023-03-11T04:25:09.834Z,91360.00
2023-03-11T04:26:09.880Z,91356.00
2023-03-11T04:27:09.930Z,91358.00
2023-03-11T04:28:09.983Z,91364.00
2023-03-11T04:29:10.065Z,91364.00
2023-03-11T04:30:10.119Z,91362.00
2023-03-11T04:31:10.218Z,91356.00
2023-03-11T04:32:10.204Z,91356.00
2023-03-11T04:33:10.261Z,91362.00
2023-03-11T04:34:10.360Z,91362.00
2023-03-11T04:35:10.399Z,91366.00
2023-03-11T04:36:10.438Z,91368.00
2023-03-11T04:37:11.336Z,91368.00
2023-03-11T04:38:10.538Z,91372.00
2023-03-11T04:39:10.595Z,91370.00
2023-03-11T04:40:10.653Z,91370.00
2023-03-11T04:41:10.696Z,91366.00
2023-03-11T04:42:10.758Z,91360.00
2023-03-11T04:43:10.809Z,91356.00
2023-03-11T04:44:10.855Z,91358.00
2023-03-11T04:45:10.933Z,91356.00
2023-03-11T04:46:11.009Z,91356.00
2023-03-11T04:47:11.041Z,91356.00
2023-03-11T04:48:11.097Z,91364.00
2023-03-11T04:49:11.156Z,91366.00
2023-03-11T04:50:11.230Z,91366.00
2023-03-11T04:51:11.280Z,91364.00
2023-03-11T04:52:11.340Z,91362.00
2023-03-11T04:53:11.403Z,91366.00
2023-03-11T04:54:11.454Z,91372.00
2023-03-11T04:55:11.522Z,91374.00
2023-03-11T04:56:11.581Z,91370.00
2023-03-11T04:57:11.656Z,91372.00
2023-03-11T04:58:11.703Z,91372.00
2023-03-11T04:59:11.764Z,91372.00
2023-03-11T05:00:11.817Z,91372.00
2023-03-11T05:01:11.903Z,91376.00
2023-03-11T05:02:13.079Z,91380.00
2023-03-11T05:03:12.040Z,91380.00
2023-03-11T05:04:12.174Z,91374.00
2023-03-11T05:05:12.346Z,91380.00
2023-03-11T05:06:12.839Z,91384.00
2023-03-11T05:07:12.226Z,91384.00
2023-03-11T05:08:12.287Z,91388.00
2023-03-11T05:09:13.334Z,91388.00
2023-03-11T05:10:12.482Z,91392.00
2023-03-11T05:11:12.466Z,91392.00
2023-03-11T05:12:12.545Z,91395.00
2023-03-11T05:13:12.605Z,91395.00
2023-03-11T05:14:12.643Z,91395.00
2023-03-11T05:15:12.691Z,91394.00
2023-03-11T05:16:12.799Z,91395.00
2023-03-11T05:17:12.813Z,91394.00
2023-03-11T05:18:12.884Z,91394.00
2023-03-11T05:19:12.926Z,91395.00
2023-03-11T05:20:15.101Z,91397.00
2023-03-11T05:21:13.356Z,91399.00
2023-03-11T05:22:13.293Z,91397.00
2023-03-11T05:23:13.354Z,91399.00
2023-03-11T05:24:13.412Z,91403.00
2023-03-11T05:25:13.471Z,91403.00
2023-03-11T05:26:13.595Z,91405.00
2023-03-11T05:27:13.593Z,91399.00
2023-03-11T05:28:13.649Z,91397.00
2023-03-11T05:29:13.709Z,91397.00
2023-03-11T05:30:13.776Z,91395.00
2023-03-11T05:31:13.990Z,91392.00
2023-03-11T05:32:13.939Z,91392.00
2023-03-11T05:33:13.973Z,91394.00
2023-03-11T05:34:14.005Z,91395.00
2023-03-11T05:35:14.093Z,91395.00
2023-03-11T05:36:14.150Z,91397.00
2023-03-11T05:37:14.211Z,91399.00
2023-03-11T05:38:14.854Z,91395.00
2023-03-11T05:39:14.314Z,91395.00
2023-03-11T05:40:14.454Z,91397.00
2023-03-11T05:41:14.436Z,91399.00
2023-03-11T05:42:14.505Z,91403.00
2023-03-11T05:43:14.570Z,91407.00
2023-03-11T05:44:14.628Z,91407.00
2023-03-11T06:56:18.943Z,91421.00
2023-03-11T06:57:18.988Z,91421.00
2023-03-11T06:58:19.052Z,91423.00
2023-03-11T06:59:19.105Z,91425.00
2023-03-11T07:00:19.157Z,91423.00
2023-03-11T07:01:19.247Z,91423.00
2023-03-11T07:02:19.269Z,91423.00
2023-03-11T07:03:19.322Z,91431.00
2023-03-11T07:04:19.445Z,91433.00
2023-03-11T07:05:19.429Z,91433.00
2023-03-11T07:06:19.496Z,91433.00
2023-03-11T07:07:19.549Z,91437.00
2023-03-11T07:08:19.615Z,91435.00
2023-03-11T07:09:19.663Z,91433.00
2023-03-11T07:10:20.216Z,91435.00
2023-03-11T07:11:20.175Z,91441.00
2023-03-11T07:12:20.401Z,91439.00
2023-03-11T07:13:19.897Z,91435.00
2023-03-11T07:14:20.508Z,91435.00
2023-03-11T07:15:20.881Z,91441.00
2023-03-11T07:16:20.063Z,91441.00
2023-03-11T07:17:20.129Z,91441.00
2023-03-11T07:18:20.172Z,91447.00
2023-03-11T07:19:20.503Z,91443.00
2023-03-11T07:20:20.336Z,91447.00
2023-03-11T07:21:20.337Z,91449.00
2023-03-11T07:22:20.392Z,91456.00
2023-03-11T07:23:20.429Z,91456.00
2023-03-11T07:24:20.730Z,91460.00
2023-03-11T07:25:20.529Z,91464.00
2023-03-11T07:26:20.580Z,91466.00
2023-03-11T07:27:20.896Z,91468.00
2023-03-11T07:28:20.683Z,91466.00
2023-03-11T07:29:21.134Z,91464.00
2023-03-11T07:30:20.798Z,91464.00
2023-03-11T07:31:21.249Z,91464.00
2023-03-11T07:32:20.952Z,91462.00
2023-03-11T07:33:20.930Z,91464.00
2023-03-11T07:34:20.987Z,91466.00
2023-03-11T07:35:21.037Z,91470.00
2023-03-11T07:36:21.114Z,91474.00
2023-03-11T07:37:21.216Z,91474.00
2023-03-11T07:38:21.221Z,91470.00
2023-03-11T07:39:21.278Z,91472.00
2023-03-11T07:40:21.882Z,91472.00
2023-03-11T07:41:21.894Z,91474.00
2023-03-11T07:42:21.929Z,91476.00
2023-03-11T07:43:21.482Z,91480.00
2023-03-11T07:44:21.547Z,91478.00
2023-03-11T07:45:21.591Z,91482.00
2023-03-11T07:46:22.026Z,91484.00
2023-03-11T07:47:21.698Z,91484.00
2023-03-11T07:48:21.748Z,91486.00
2023-03-11T07:49:21.819Z,91488.00
2023-03-11T07:50:21.868Z,91488.00
2023-03-11T07:51:21.960Z,91488.00
2023-03-11T07:52:21.964Z,91490.00
2023-03-11T07:53:22.032Z,91494.00
2023-03-11T07:54:22.088Z,91496.00
2023-03-11T07:55:22.890Z,91497.00
2023-03-11T07:56:22.177Z,91496.00
2023-03-11T07:57:22.235Z,91494.00
2023-03-11T07:58:22.280Z,91496.00
2023-03-11T07:59:22.345Z,91496.00
2023-03-11T08:00:22.387Z,91496.00
2023-03-11T08:01:22.475Z,91492.00
2023-03-11T08:02:22.549Z,91494.00
2023-03-11T08:03:22.584Z,91494.00
2023-03-11T08:04:22.611Z,91490.00
2023-03-11T08:05:22.664Z,91496.00
2023-03-11T08:06:22.709Z,91496.00
2023-03-11T08:07:22.774Z,91494.00
2023-03-11T08:08:22.820Z,91497.00
2023-03-11T08:09:22.908Z,91496.00
2023-03-11T08:10:22.933Z,91497.00
2023-03-11T08:12:23.031Z,91494.00
2023-03-11T08:13:23.096Z,91499.00
2023-03-11T08:14:23.160Z,91496.00
2023-03-11T08:15:23.210Z,91501.00
2023-03-11T08:16:23.254Z,91501.00
2023-03-11T10:19:28.925Z,91525.00
2023-03-11T10:44:28.940Z,91531.00
2023-03-11T10:45:28.976Z,91533.00
2023-03-11T10:46:29.004Z,91535.00
2023-03-11T10:47:29.035Z,91535.00
2023-03-11T10:48:29.069Z,91537.00
2023-03-11T10:49:29.108Z,91539.00
2023-03-11T10:50:29.139Z,91539.00
2023-03-11T10:51:29.234Z,91541.00
2023-03-11T10:52:29.212Z,91543.00
2023-03-11T10:53:29.229Z,91544.00
2023-03-11T10:54:29.287Z,91539.00
2023-03-11T10:55:29.324Z,91541.00
2023-03-11T10:56:29.434Z,91543.00
2023-03-11T10:57:29.421Z,91539.00
2023-03-11T10:58:29.406Z,91541.00
2023-03-11T10:59:29.509Z,91543.00
2023-03-11T11:00:29.540Z,91546.00
2023-03-11T11:01:29.632Z,91543.00
2023-03-11T11:02:29.598Z,91546.00
2023-03-11T11:03:29.638Z,91546.00
2023-03-11T11:04:29.823Z,91543.00
2023-03-11T11:05:29.761Z,91543.00
2023-03-11T11:06:29.786Z,91544.00
2023-03-11T11:07:29.826Z,91546.00
2023-03-11T11:08:29.948Z,91546.00
2023-03-11T11:09:30.140Z,91539.00
2023-03-11T11:10:30.069Z,91541.00
2023-03-11T11:11:30.110Z,91539.00
2023-03-11T11:12:30.131Z,91537.00
2023-03-11T11:13:30.264Z,91533.00
2023-03-11T11:14:30.264Z,91533.00
2023-03-11T11:15:30.300Z,91537.00
2023-03-11T11:16:30.964Z,91539.00
2023-03-11T11:17:30.375Z,91537.00
2023-03-11T11:18:30.485Z,91535.00
2023-03-11T11:19:30.444Z,91531.00
2023-03-11T11:20:30.475Z,91533.00
2023-03-11T11:21:31.468Z,91533.00
2023-03-11T11:22:30.545Z,91533.00
2023-03-11T11:23:30.575Z,91531.00
2023-03-11T11:24:30.626Z,91529.00
2023-03-11T11:25:30.709Z,91529.00
2023-03-11T11:26:30.699Z,91531.00
2023-03-11T11:27:30.961Z,91529.00
2023-03-11T11:28:30.791Z,91529.00
2023-03-11T11:29:30.802Z,91531.00
2023-03-11T11:30:30.878Z,91537.00
2023-03-11T11:31:30.874Z,91537.00
2023-03-11T11:32:30.948Z,91535.00
2023-03-11T11:33:30.953Z,91537.00
2023-03-11T11:34:31.950Z,91531.00
2023-03-11T11:35:31.465Z,91529.00
2023-03-11T11:36:31.077Z,91527.00
2023-03-11T11:37:31.113Z,91523.00
2023-03-11T11:38:31.148Z,91527.00
2023-03-11T11:39:31.234Z,91527.00
2023-03-11T11:40:31.222Z,91523.00
2023-03-11T11:41:31.265Z,91521.00
2023-03-11T11:42:31.299Z,91525.00
2023-03-11T11:43:31.318Z,91527.00
2023-03-11T11:44:31.434Z,91525.00
2023-03-11T11:45:31.398Z,91519.00
2023-03-11T11:46:32.013Z,91517.00
2023-03-11T11:47:31.492Z,91517.00
2023-03-11T11:48:31.518Z,91519.00
2023-03-11T11:49:31.577Z,91515.00
2023-03-11T11:50:31.590Z,91511.00
2023-03-11T11:51:31.684Z,91511.00
2023-03-11T11:52:31.733Z,91511.00
2023-03-11T11:53:31.756Z,91509.00
2023-03-11T11:54:31.803Z,91509.00
2023-03-11T11:55:31.849Z,91509.00
2023-03-11T11:56:31.966Z,91507.00
2023-03-11T11:57:31.929Z,91505.00
2023-03-11T11:58:32.951Z,91505.00
2023-03-11T11:59:31.987Z,91513.00
2023-03-11T12:00:32.030Z,91513.00
2023-03-11T12:01:32.058Z,91515.00
2023-03-11T12:02:32.075Z,91513.00
2023-03-11T12:03:32.289Z,91515.00
2023-03-11T12:04:32.326Z,91509.00
2023-03-11T12:05:32.387Z,91505.00
2023-03-11T12:06:32.396Z,91503.00
2023-03-11T12:07:32.955Z,91503.00
2023-03-11T12:08:32.491Z,91501.00
2023-03-11T12:09:32.497Z,91497.00
2023-03-11T12:10:32.541Z,91490.00
2023-03-11T12:11:32.958Z,91499.00
2023-03-11T12:12:32.689Z,91497.00
2023-03-11T12:13:32.808Z,91507.00
2023-03-11T12:14:32.857Z,91497.00
2023-03-11T12:15:32.944Z,91501.00
2023-03-11T12:16:32.921Z,91497.00
2023-03-11T12:17:32.952Z,91492.00
2023-03-11T12:18:32.986Z,91492.00
2023-03-11T12:19:33.092Z,91490.00
2023-03-11T12:20:33.221Z,91484.00
2023-03-11T12:21:33.258Z,91478.00
2023-03-11T12:22:33.280Z,91492.00
2023-03-11T12:23:33.306Z,91496.00
2023-03-11T12:24:33.342Z,91486.00
2023-03-11T12:25:33.481Z,91488.00
2023-03-11T12:26:33.557Z,91482.00
2023-03-11T12:27:33.619Z,91476.00
2023-03-11T12:28:33.702Z,91482.00
2023-03-11T12:29:33.730Z,91482.00
2023-03-11T12:30:33.762Z,91478.00
2023-03-11T12:31:33.846Z,91482.00
2023-03-11T12:32:33.878Z,91486.00
2023-03-11T12:33:33.941Z,91476.00
2023-03-11T12:34:33.953Z,91474.00
2023-03-11T12:35:34.058Z,91478.00
2023-03-11T12:36:34.174Z,91478.00
2023-03-11T12:37:34.145Z,91478.00
2023-03-11T12:38:34.080Z,91476.00
2023-03-11T12:39:34.233Z,91472.00
2023-03-11T12:40:34.412Z,91468.00
2023-03-11T12:41:34.426Z,91464.00
2023-03-11T12:42:34.455Z,91474.00
2023-03-11T12:43:34.489Z,91464.00
2023-03-11T12:44:34.509Z,91462.00
2023-03-11T12:45:34.609Z,91468.00
2023-03-11T12:46:34.641Z,91474.00
2023-03-11T12:47:35.721Z,91472.00
2023-03-11T12:48:34.679Z,91468.00
2023-03-11T12:49:34.697Z,91464.00
2023-03-11T12:50:34.721Z,91466.00
2023-03-11T12:51:34.785Z,91464.00
2023-03-11T12:52:34.799Z,91468.00
2023-03-11T12:53:34.816Z,91470.00
2023-03-11T12:54:34.861Z,91468.00
2023-03-11T12:55:35.472Z,91470.00
2023-03-11T12:56:34.910Z,91466.00
2023-03-11T12:57:34.947Z,91464.00
2023-03-11T12:58:34.983Z,91462.00
2023-03-11T12:59:35.013Z,91462.00
2023-03-11T13:00:35.045Z,91462.00
2023-03-11T13:01:35.103Z,91458.00
2023-03-11T13:02:35.155Z,91460.00
2023-03-11T13:03:35.155Z,91464.00
2023-03-11T13:04:35.200Z,91447.00
2023-03-11T13:05:35.233Z,91456.00
2023-03-11T14:20:39.029Z,91488.00
2023-03-11T14:37:38.927Z,91492.00
2023-03-11T14:38:38.976Z,91486.00
2023-03-11T14:39:39.010Z,91494.00
2023-03-11T14:40:39.105Z,91494.00
2023-03-11T14:41:39.080Z,91494.00
2023-03-11T14:42:39.115Z,91501.00
2023-03-11T14:43:39.247Z,91505.00
2023-03-11T14:44:39.340Z,91505.00
2023-03-11T14:45:39.382Z,91505.00
2023-03-11T14:46:39.346Z,91499.00
2023-03-11T14:47:39.398Z,91496.00
2023-03-11T14:48:39.430Z,91501.00
2023-03-11T14:49:39.552Z,91505.00
2023-03-11T14:50:40.009Z,91499.00
2023-03-11T14:51:39.527Z,91496.00
2023-03-11T14:52:39.568Z,91497.00
2023-03-11T14:53:39.606Z,91496.00
2023-03-11T14:54:39.641Z,91499.00
2023-03-11T14:55:39.677Z,91494.00
2023-03-11T14:56:39.728Z,91507.00
2023-03-11T14:57:39.763Z,91507.00
2023-03-11T14:58:39.805Z,91507.00
2023-03-11T14:59:39.833Z,91509.00
2023-03-11T15:00:39.897Z,91509.00
2023-03-11T15:01:39.941Z,91511.00
2023-03-11T15:02:39.951Z,91517.00
2023-03-11T15:03:40.049Z,91511.00
2023-03-11T15:04:40.031Z,91513.00
2023-03-11T15:05:40.044Z,91509.00
2023-03-11T15:06:40.088Z,91503.00
2023-03-11T15:07:40.141Z,91509.00
2023-03-11T15:08:40.164Z,91511.00
2023-03-11T15:09:40.229Z,91517.00
2023-03-11T15:10:40.252Z,91519.00
2023-03-11T15:11:40.301Z,91515.00
2023-03-11T15:12:40.349Z,91519.00
2023-03-11T15:13:40.390Z,91525.00
2023-03-11T15:14:40.433Z,91523.00
2023-03-11T15:15:40.513Z,91525.00
2023-03-11T15:16:40.530Z,91529.00
2023-03-11T15:17:44.389Z,91527.00
2023-03-11T15:18:40.577Z,91527.00
2023-03-11T15:19:40.584Z,91523.00
2023-03-11T15:20:40.620Z,91529.00
2023-03-11T15:21:40.623Z,91533.00
2023-03-11T15:22:40.662Z,91533.00
2023-03-11T15:23:40.673Z,91531.00
2023-03-11T15:24:40.687Z,91535.00
2023-03-11T15:25:40.709Z,91531.00
2023-03-11T15:26:41.513Z,91531.00
2023-03-11T15:27:40.738Z,91533.00
2023-03-11T15:28:40.766Z,91533.00
2023-03-11T15:29:40.775Z,91531.00
2023-03-11T15:30:40.829Z,91537.00
2023-03-11T15:31:40.804Z,91537.00
2023-03-11T15:32:40.887Z,91537.00
2023-03-11T15:33:40.844Z,91535.00
2023-03-11T15:34:40.859Z,91537.00
2023-03-11T15:35:41.029Z,91533.00
2023-03-11T15:36:40.915Z,91529.00
2023-03-11T15:37:41.524Z,91535.00
2023-03-11T15:38:40.950Z,91546.00
2023-03-11T15:39:40.970Z,91546.00
2023-03-11T15:40:45.688Z,91544.00
2023-03-11T15:41:42.016Z,91544.00
2023-03-11T15:42:41.017Z,91544.00
2023-03-11T15:43:41.028Z,91544.00
2023-03-11T15:44:41.075Z,91546.00
2023-03-11T15:45:41.070Z,91546.00
2023-03-11T15:46:41.076Z,91543.00
2023-03-11T15:47:41.089Z,91543.00
2023-03-11T15:48:41.095Z,91548.00
2023-03-11T15:49:41.117Z,91548.00
2023-03-11T15:50:52.621Z,91548.00
2023-03-11T15:51:42.136Z,91544.00
2023-03-11T15:52:41.226Z,91541.00
2023-03-11T15:53:41.185Z,91543.00
2023-03-11T15:54:41.210Z,91548.00
2023-03-11T15:55:41.196Z,91541.00
2023-03-11T15:56:41.254Z,91548.00
2023-03-11T15:57:41.246Z,91552.00
2023-03-11T15:58:41.257Z,91556.00
2023-03-11T15:59:41.304Z,91552.00
2023-03-11T16:00:41.307Z,91552.00
2023-03-11T16:01:41.341Z,91562.00
2023-03-11T16:02:41.358Z,91554.00
2023-03-11T16:03:41.464Z,91554.00
2023-03-11T16:04:41.512Z,91554.00
2023-03-11T16:05:41.399Z,91552.00
2023-03-11T16:06:41.428Z,91554.00
2023-03-11T16:07:41.465Z,91560.00
2023-03-11T16:08:41.552Z,91556.00
2023-03-11T16:09:41.478Z,91554.00
2023-03-11T16:10:41.491Z,91558.00
2023-03-11T16:11:41.513Z,91562.00
2023-03-11T16:12:41.550Z,91558.00
2023-03-11T16:13:41.607Z,91560.00
2023-03-11T16:14:42.520Z,91564.00
2023-03-11T16:15:41.754Z,91562.00
2023-03-11T16:16:41.758Z,91564.00
2023-03-11T16:17:49.803Z,91568.00
2023-03-11T16:18:42.896Z,91562.00
2023-03-11T16:23:51.688Z,91572.00
2023-03-11T16:25:41.959Z,91572.00
2023-03-11T16:26:41.981Z,91572.00
2023-03-11T16:27:41.992Z,91574.00
2023-03-11T16:28:42.010Z,91581.00
2023-03-11T16:29:42.032Z,91574.00
2023-03-11T16:30:42.053Z,91583.00
2023-03-11T16:31:42.077Z,91583.00
2023-03-11T16:32:42.134Z,91585.00
2023-03-11T16:33:42.177Z,91587.00
2023-03-11T16:34:42.124Z,91589.00
2023-03-11T16:35:42.157Z,91587.00
2023-03-11T16:36:42.153Z,91587.00
2023-03-11T16:37:42.190Z,91587.00
2023-03-11T16:38:42.210Z,91585.00
2023-03-11T16:39:42.267Z,91589.00
2023-03-11T16:40:42.322Z,91593.00
2023-03-11T16:41:42.408Z,91593.00
2023-03-11T16:42:42.438Z,91595.00
2023-03-11T16:43:42.504Z,91591.00
2023-03-11T16:44:42.545Z,91591.00
2023-03-11T16:45:42.666Z,91591.00
2023-03-11T16:46:42.667Z,91591.00
2023-03-11T16:47:42.712Z,91593.00
2023-03-11T16:48:42.772Z,91591.00
2023-03-11T16:49:42.826Z,91585.00
2023-03-11T16:50:42.897Z,91585.00
2023-03-11T16:51:42.950Z,91587.00
2023-03-11T16:52:43.044Z,91587.00
2023-03-11T16:53:43.126Z,91585.00
2023-03-11T16:54:43.121Z,91591.00
2023-03-11T16:55:43.193Z,91593.00
2023-03-11T16:56:43.247Z,91599.00
2023-03-11T16:57:43.334Z,91597.00
2023-03-11T16:58:43.367Z,91601.00
2023-03-11T16:59:43.458Z,91601.00
2023-03-11T17:00:43.490Z,91603.00
2023-03-11T17:01:43.689Z,91605.00
2023-03-11T17:02:43.634Z,91607.00
2023-03-11T17:03:43.692Z,91609.00
2023-03-11T17:04:44.576Z,91615.00
2023-03-11T17:05:43.814Z,91611.00
2023-03-11T17:06:44.048Z,91611.00
2023-03-11T17:07:43.948Z,91615.00
2023-03-11T17:08:44.011Z,91613.00
2023-03-11T17:09:44.075Z,91620.00
2023-03-11T17:10:44.204Z,91620.00
2023-03-11T17:11:45.097Z,91619.00
2023-03-11T17:12:44.286Z,91620.00
2023-03-11T17:13:44.368Z,91619.00
2023-03-11T17:14:44.407Z,91619.00
2023-03-11T17:15:44.493Z,91622.00
2023-03-11T17:16:44.574Z,91624.00
2023-03-11T17:17:44.612Z,91626.00
2023-03-11T17:18:44.680Z,91634.00
2023-03-11T17:19:44.735Z,91636.00
2023-03-11T17:20:44.793Z,91636.00
2023-03-11T17:21:44.864Z,91636.00
2023-03-11T17:22:44.928Z,91642.00
2023-03-11T17:23:45.005Z,91646.00
2023-03-11T17:24:45.120Z,91650.00
2023-03-11T17:25:45.149Z,91648.00
2023-03-11T17:26:45.211Z,91648.00
2023-03-11T17:27:45.276Z,91648.00
2023-03-11T17:28:45.345Z,91650.00
2023-03-11T17:29:45.460Z,91652.00
2023-03-11T17:30:45.541Z,91654.00
2023-03-11T17:31:45.590Z,91656.00
2023-03-11T17:32:45.716Z,91658.00
2023-03-11T17:33:45.689Z,91658.00
2023-03-11T17:34:45.734Z,91664.00
2023-03-11T17:35:45.824Z,91669.00
2023-03-11T17:36:45.863Z,91671.00
2023-03-11T17:37:46.022Z,91673.00
2023-03-11T17:38:46.016Z,91675.00
2023-03-11T17:39:46.559Z,91677.00
2023-03-11T17:40:46.147Z,91677.00
2023-03-11T17:41:46.209Z,91679.00
2023-03-11T17:42:46.301Z,91687.00
2023-03-11T17:43:47.386Z,91691.00
2023-03-11T17:44:51.852Z,91691.00
2023-03-11T17:45:47.454Z,91691.00
2023-03-11T17:46:46.527Z,91693.00
2023-03-11T17:47:46.490Z,91691.00
2023-03-11T17:48:46.536Z,91695.00
2023-03-11T17:49:46.530Z,91699.00
2023-03-11T17:50:46.547Z,91703.00
2023-03-11T17:51:46.561Z,91709.00
2023-03-11T17:52:46.610Z,91707.00
2023-03-11T17:53:46.609Z,91707.00
2023-03-11T17:54:46.612Z,91711.00
2023-03-11T17:55:46.624Z,91714.00
2023-03-11T17:56:46.654Z,91716.00
2023-03-11T17:57:46.730Z,91722.00
2023-03-11T17:58:46.805Z,91726.00
2023-03-11T17:59:46.877Z,91726.00
2023-03-11T18:00:46.944Z,91734.00
2023-03-11T18:01:47.052Z,91736.00
2023-03-11T18:02:47.100Z,91748.00
2023-03-11T18:03:47.212Z,91746.00
2023-03-11T18:04:47.269Z,91746.00
2023-03-11T18:05:47.321Z,91750.00
2023-03-11T18:06:47.401Z,91754.00
2023-03-11T18:07:47.476Z,91752.00
2023-03-11T18:08:47.552Z,91758.00
2023-03-11T18:09:47.626Z,91762.00
2023-03-11T18:10:47.702Z,91769.00
2023-03-11T18:11:47.776Z,91769.00
2023-03-11T18:12:47.844Z,91769.00
2023-03-11T18:13:48.021Z,91775.00
2023-03-11T18:14:48.008Z,91777.00
2023-03-11T18:15:48.077Z,91785.00
2023-03-11T18:16:48.188Z,91785.00
2023-03-11T18:17:48.227Z,91791.00
2023-03-11T18:18:48.318Z,91799.00
2023-03-11T18:19:48.382Z,91783.00
2023-03-11T18:20:48.523Z,91791.00
2023-03-11T18:21:48.566Z,91791.00
2023-03-11T18:22:48.587Z,91795.00
2023-03-11T18:23:48.665Z,91795.00
2023-03-11T18:24:48.754Z,91799.00
2023-03-11T18:25:48.823Z,91807.00
2023-03-11T18:26:48.911Z,91805.00
2023-03-11T18:27:48.992Z,91805.00
2023-03-11T18:28:49.039Z,91805.00
2023-03-11T18:29:49.192Z,91809.00
2023-03-11T18:30:49.198Z,91815.00
2023-03-11T18:31:49.298Z,91818.00
2023-03-11T18:32:49.353Z,91818.00
2023-03-11T18:33:49.418Z,91822.00
2023-03-11T18:34:49.505Z,91824.00
2023-03-11T18:35:49.637Z,91830.00
2023-03-11T18:36:49.655Z,91838.00
2023-03-11T18:37:49.732Z,91840.00
2023-03-11T18:38:49.805Z,91842.00
2023-03-11T18:39:49.876Z,91849.00
2023-03-11T18:40:49.948Z,91847.00
2023-03-11T18:41:50.027Z,91853.00
2023-03-11T18:42:50.134Z,91853.00
2023-03-11T18:43:50.174Z,91855.00
2023-03-11T18:44:50.318Z,91853.00
2023-03-11T18:45:50.348Z,91855.00
2023-03-11T18:46:50.411Z,91857.00
2023-03-11T18:47:50.487Z,91857.00
2023-03-11T18:48:50.575Z,91861.00
2023-03-11T18:49:50.649Z,91867.00
2023-03-11T18:50:50.734Z,91863.00
2023-03-11T18:51:50.811Z,91867.00
2023-03-11T18:52:50.881Z,91863.00
2023-03-11T18:53:50.960Z,91869.00
2023-03-11T18:54:51.098Z,91871.00
2023-03-11T18:55:51.128Z,91869.00
2023-03-11T18:56:51.257Z,91869.00
2023-03-11T18:57:51.279Z,91873.00
2023-03-11T18:58:51.340Z,91879.00
2023-03-11T18:59:51.418Z,91879.00
2023-03-11T19:00:51.588Z,91881.00
2023-03-11T19:01:51.573Z,91885.00
2023-03-11T19:02:51.658Z,91891.00
2023-03-11T19:03:51.720Z,91892.00
2023-03-11T19:04:52.627Z,91892.00
2023-03-11T19:05:51.879Z,91892.00
2023-03-11T19:06:51.963Z,91894.00
2023-03-11T19:07:52.094Z,91898.00
2023-03-11T19:08:52.116Z,91894.00
2023-03-11T19:09:52.185Z,91894.00
2023-03-11T19:10:52.274Z,91896.00
2023-03-11T19:11:52.345Z,91896.00
2023-03-11T19:12:52.429Z,91900.00
2023-03-11T19:13:52.517Z,91898.00
2023-03-11T19:14:52.591Z,91906.00
2023-03-11T19:15:52.721Z,91898.00
2023-03-11T19:16:52.799Z,91900.00
2023-03-11T19:18:05.962Z,91904.00
2023-03-11T19:18:53.933Z,91908.00
2023-03-11T19:19:52.866Z,91906.00
2023-03-11T19:20:52.909Z,91910.00
2023-03-11T19:21:52.922Z,91910.00
2023-03-11T19:22:52.944Z,91910.00
2023-03-11T19:23:52.964Z,91918.00
2023-03-11T19:24:52.991Z,91920.00
2023-03-11T19:26:02.504Z,91920.00
2023-03-11T19:26:54.039Z,91920.00
2023-03-11T19:27:53.051Z,91920.00
2023-03-11T19:28:53.057Z,91922.00
2023-03-11T19:29:53.064Z,91922.00
2023-03-11T19:30:53.109Z,91920.00
2023-03-11T19:31:53.109Z,91920.00
2023-03-11T19:32:53.245Z,91920.00
2023-03-11T19:33:53.218Z,91924.00
2023-03-11T19:34:53.159Z,91922.00
2023-03-11T19:35:53.224Z,91926.00
2023-03-11T19:36:53.262Z,91926.00
2023-03-11T19:37:55.474Z,91926.00
2023-03-11T19:38:53.352Z,91924.00
2023-03-11T19:39:53.379Z,91926.00
2023-03-11T19:40:53.393Z,91924.00
2023-03-11T19:41:53.424Z,91922.00
2023-03-11T19:42:53.452Z,91926.00
2023-03-11T19:43:53.496Z,91926.00
2023-03-11T19:44:53.488Z,91926.00
2023-03-11T19:45:53.555Z,91928.00
2023-03-11T19:46:53.627Z,91928.00
2023-03-11T19:47:53.630Z,91928.00
2023-03-11T19:48:53.595Z,91928.00
2023-03-11T19:49:53.644Z,91932.00
2023-03-11T19:50:53.654Z,91934.00
2023-03-11T19:51:53.708Z,91936.00
2023-03-11T19:52:53.710Z,91928.00
2023-03-11T19:53:53.781Z,91934.00
2023-03-11T19:54:53.759Z,91934.00
2023-03-11T19:55:53.787Z,91934.00
2023-03-11T19:56:53.878Z,91941.00
2023-03-11T19:57:53.887Z,91939.00
2023-03-11T19:58:53.851Z,91939.00
2023-03-11T19:59:53.865Z,91941.00
2023-03-11T20:00:53.892Z,91943.00
2023-03-11T20:01:53.944Z,91943.00
2023-03-11T20:02:53.984Z,91939.00
2023-03-11T20:03:53.970Z,91938.00
2023-03-11T20:04:54.055Z,91943.00
2023-03-11T20:05:54.045Z,91945.00
2023-03-11T20:06:54.108Z,91945.00
2023-03-11T20:07:54.111Z,91949.00
2023-03-11T20:08:54.223Z,91953.00
2023-03-11T20:09:54.181Z,91953.00
2023-03-11T20:10:54.307Z,91953.00
2023-03-11T20:11:54.341Z,91955.00
2023-03-11T20:13:01.993Z,91953.00
2023-03-11T20:13:55.462Z,91957.00
2023-03-11T20:14:54.507Z,91963.00
2023-03-11T20:15:54.594Z,91961.00
2023-03-11T20:16:54.510Z,91971.00
2023-03-11T20:17:54.563Z,91965.00
2023-03-11T20:18:54.539Z,91969.00
2023-03-11T20:19:55.091Z,91971.00
2023-03-11T20:20:54.572Z,91975.00
2023-03-11T20:21:54.647Z,91973.00
2023-03-11T20:22:54.605Z,91973.00
2023-03-11T20:23:54.769Z,91975.00
2023-03-11T20:24:54.678Z,91977.00
2023-03-11T20:25:54.688Z,91983.00
2023-03-11T20:26:54.807Z,91979.00
2023-03-11T20:27:54.912Z,91981.00
2023-03-11T20:28:54.905Z,91981.00
2023-03-11T20:29:54.970Z,91977.00
2023-03-11T20:30:55.097Z,91979.00
2023-03-11T20:31:55.144Z,91979.00
2023-03-11T20:32:55.264Z,91977.00
2023-03-11T20:33:55.214Z,91979.00
2023-03-11T20:34:55.276Z,91979.00
2023-03-11T20:35:55.388Z,91983.00
2023-03-11T20:36:55.403Z,91985.00
2023-03-11T20:37:55.537Z,91986.00